createdAt,value
2022-08-26T00:01:56.292Z,5.75
2022-08-26T00:04:25.741Z,6.25
2022-08-26T00:06:55.653Z,4.75
2022-08-26T00:09:25.056Z,5.50
2022-08-26T00:11:54.475Z,7.25
2022-08-26T00:14:28.296Z,5.75
2022-08-26T00:16:58.696Z,6.00
2022-08-26T00:19:26.902Z,5.25
2022-08-26T00:21:54.809Z,5.25
2022-08-26T00:24:23.824Z,6.00
2022-08-26T00:26:51.804Z,5.25
2022-08-26T00:29:19.705Z,6.50
2022-08-26T00:31:49.258Z,7.50
2022-08-26T00:34:19.287Z,5.50
2022-08-26T00:36:49.207Z,6.00
2022-08-26T00:39:20.469Z,4.75
2022-08-26T00:41:49.255Z,6.50
2022-08-26T00:44:19.423Z,5.50
2022-08-26T00:46:51.572Z,3.75
2022-08-26T00:49:44.421Z,6.00
2022-08-26T00:52:20.222Z,5.00
2022-08-26T00:55:17.357Z,5.50
2022-08-26T00:57:50.617Z,7.00
2022-08-26T01:00:23.633Z,5.75
2022-08-26T01:02:52.079Z,5.00
2022-08-26T01:05:20.240Z,5.25
2022-08-26T01:07:48.498Z,6.00
2022-08-26T01:10:24.005Z,5.50
2022-08-26T01:13:03.652Z,5.75
2022-08-26T01:15:37.471Z,5.50
2022-08-26T01:18:06.436Z,5.75
2022-08-26T01:21:07.880Z,6.25
2022-08-26T01:23:45.191Z,5.00
2022-08-26T01:26:34.639Z,5.00
2022-08-26T01:29:05.909Z,5.75
2022-08-26T01:31:41.993Z,5.25
2022-08-26T01:34:31.402Z,5.50
2022-08-26T01:37:20.582Z,4.75
2022-08-26T01:39:52.062Z,4.75
2022-08-26T01:42:22.659Z,5.00
2022-08-26T01:45:07.598Z,6.00
2022-08-26T01:47:38.116Z,4.75
2022-08-26T01:50:11.071Z,5.00
2022-08-26T01:52:45.377Z,4.75
2022-08-26T01:55:32.302Z,5.00
2022-08-26T01:58:08.416Z,3.50
2022-08-26T02:00:38.198Z,6.00
2022-08-26T02:03:22.065Z,6.00
2022-08-26T02:05:53.612Z,5.75
2022-08-26T02:08:45.140Z,4.75
2022-08-26T02:11:14.025Z,5.50
2022-08-26T02:13:54.259Z,7.00
2022-08-26T02:16:27.311Z,5.00
2022-08-26T02:18:56.349Z,6.00
2022-08-26T02:21:25.155Z,6.00
2022-08-26T02:23:52.851Z,5.25
2022-08-26T02:26:27.028Z,7.50
2022-08-26T02:29:05.683Z,4.75
2022-08-26T02:31:35.804Z,5.75
2022-08-26T02:34:15.614Z,6.00
2022-08-26T02:36:44.015Z,5.50
2022-08-26T02:39:12.310Z,5.00
2022-08-26T02:41:44.782Z,6.25
2022-08-26T02:44:13.470Z,6.00
2022-08-26T02:46:41.739Z,4.25
2022-08-26T02:49:15.601Z,5.00
2022-08-26T02:51:44.808Z,3.25
2022-08-26T02:54:13.717Z,5.25
2022-08-26T02:56:41.426Z,4.75
2022-08-26T02:59:09.679Z,6.00
2022-08-26T03:01:37.408Z,7.50
2022-08-26T03:04:09.941Z,6.00
2022-08-26T03:06:38.890Z,6.25
2022-08-26T03:09:08.691Z,5.25
2022-08-26T03:11:37.166Z,6.00
2022-08-26T03:14:05.377Z,5.25
2022-08-26T03:16:37.763Z,6.25
2022-08-26T03:19:08.100Z,6.00
2022-08-26T03:21:37.687Z,5.50
2022-08-26T03:24:06.381Z,5.00
2022-08-26T03:26:33.905Z,6.00
2022-08-26T03:29:20.501Z,5.25
2022-08-26T03:31:48.312Z,6.25
2022-08-26T03:34:19.991Z,6.00
2022-08-26T03:36:54.607Z,5.00
2022-08-26T03:39:24.689Z,5.00
2022-08-26T03:41:55.028Z,4.50
2022-08-26T03:44:28.339Z,5.00
2022-08-26T03:46:56.116Z,6.00
2022-08-26T03:49:26.451Z,6.50
2022-08-26T03:51:58.372Z,5.00
2022-08-26T03:54:28.154Z,4.00
2022-08-26T03:56:57.573Z,4.75
2022-08-26T03:59:25.922Z,6.00
2022-08-26T04:01:53.878Z,5.75
2022-08-26T04:04:33.196Z,4.25
2022-08-26T04:07:06.413Z,4.75
2022-08-26T04:09:40.817Z,6.00
2022-08-26T04:12:11.171Z,5.25
2022-08-26T04:14:39.130Z,3.00
2022-08-26T04:17:06.976Z,5.25
2022-08-26T04:19:35.350Z,5.75
2022-08-26T04:22:03.151Z,5.25
2022-08-26T04:24:30.696Z,5.50
2022-08-26T04:26:58.417Z,5.00
2022-08-26T04:29:27.311Z,4.75
2022-08-26T04:31:56.176Z,7.00
2022-08-26T04:34:27.228Z,5.50
2022-08-26T04:36:58.031Z,5.00
2022-08-26T04:39:27.699Z,3.25
2022-08-26T04:41:55.991Z,6.00
2022-08-26T04:44:27.850Z,5.75
2022-08-26T04:46:55.871Z,4.50
2022-08-26T04:49:23.940Z,4.25
2022-08-26T04:51:54.245Z,5.00
2022-08-26T04:54:22.606Z,5.75
2022-08-26T04:56:51.021Z,2.00
2022-08-26T04:59:18.740Z,5.75
2022-08-26T05:01:49.331Z,5.00
2022-08-26T05:04:19.139Z,5.25
2022-08-26T05:06:48.582Z,6.00
2022-08-26T05:09:18.720Z,5.50
2022-08-26T05:11:51.877Z,4.50
2022-08-26T05:14:22.184Z,4.75
2022-08-26T05:16:50.246Z,3.00
2022-08-26T05:19:19.274Z,5.00
2022-08-26T05:21:48.903Z,2.75
2022-08-26T05:24:17.194Z,4.00
2022-08-26T05:26:45.734Z,4.25
2022-08-26T05:29:14.298Z,4.50
2022-08-26T05:31:42.169Z,4.25
2022-08-26T05:34:10.469Z,4.25
2022-08-26T05:36:39.160Z,4.00
2022-08-26T05:39:07.594Z,4.25
2022-08-26T05:41:41.282Z,4.25
2022-08-26T05:44:12.947Z,5.50
2022-08-26T05:46:44.952Z,3.50
2022-08-26T05:49:14.742Z,3.00
2022-08-26T05:51:47.709Z,5.00
2022-08-26T05:54:21.919Z,4.25
2022-08-26T05:56:53.738Z,4.50
2022-08-26T05:59:24.531Z,3.60
2022-08-26T06:01:55.102Z,3.75
2022-08-26T06:04:24.715Z,5.75
2022-08-26T06:06:54.681Z,4.00
2022-08-26T06:09:22.380Z,6.00
2022-08-26T06:11:51.557Z,4.00
2022-08-26T06:14:19.242Z,0.20
2022-08-26T06:16:46.831Z,5.75
2022-08-26T06:19:15.891Z,4.00
2022-08-26T06:21:51.304Z,3.40
2022-08-26T06:24:40.416Z,4.60
2022-08-26T06:27:11.378Z,4.40
2022-08-26T06:29:39.402Z,4.00
2022-08-26T06:32:07.114Z,5.20
2022-08-26T06:34:36.760Z,3.20
2022-08-26T06:37:06.638Z,4.20
2022-08-26T06:39:34.770Z,4.40
2022-08-26T06:42:03.408Z,2.00
2022-08-26T06:44:34.819Z,4.00
2022-08-26T06:47:02.398Z,5.00
2022-08-26T06:49:29.980Z,2.80
2022-08-26T06:51:58.902Z,4.00
2022-08-26T06:54:29.001Z,3.80
2022-08-26T06:56:57.736Z,3.40
2022-08-26T06:59:25.962Z,3.60
2022-08-26T07:01:55.120Z,3.40
2022-08-26T07:04:24.734Z,4.00
2022-08-26T07:06:53.760Z,3.40
2022-08-26T07:09:23.982Z,4.00
2022-08-26T07:11:52.673Z,3.00
2022-08-26T07:14:21.943Z,3.40
2022-08-26T07:16:51.092Z,3.40
2022-08-26T07:19:29.778Z,4.00
2022-08-26T07:22:03.659Z,5.20
2022-08-26T07:24:37.343Z,3.20
2022-08-26T07:27:08.575Z,4.00
2022-08-26T07:29:37.599Z,5.00
2022-08-26T07:32:06.640Z,2.00
2022-08-26T07:34:34.983Z,4.20
2022-08-26T07:56:13.835Z,2.60
2022-08-26T08:15:25.868Z,2.00
2022-08-26T08:31:56.240Z,2.20
2022-08-26T08:47:37.435Z,2.00
2022-08-26T08:51:05.488Z,2.00
2022-08-26T08:58:02.275Z,0.80
2022-08-26T09:01:22.242Z,2.00
2022-08-26T09:04:19.924Z,0.60
2022-08-26T09:10:59.262Z,2.00
2022-08-26T09:13:36.152Z,0.60
2022-08-26T09:16:14.721Z,1.80
2022-08-26T09:18:56.900Z,1.60
2022-08-26T09:21:32.166Z,1.80
2022-08-26T09:27:39.936Z,1.20
2022-08-26T09:36:42.711Z,1.80
2022-08-26T09:39:30.850Z,2.40
2022-08-26T09:42:34.111Z,1.40
2022-08-26T10:02:33.534Z,2.00
2022-08-26T10:05:09.550Z,1.00
2022-08-26T10:07:43.063Z,1.00
2022-08-26T10:10:20.958Z,1.80
2022-08-26T10:13:07.344Z,2.00
2022-08-26T10:16:21.647Z,1.80
2022-08-26T10:19:07.971Z,1.00
2022-08-26T10:21:45.993Z,1.00
2022-08-26T10:24:31.337Z,2.00
2022-08-26T10:27:21.122Z,1.20
2022-08-26T10:29:52.730Z,1.20
2022-08-26T10:33:08.599Z,1.20
2022-08-26T10:35:42.006Z,2.00
2022-08-26T10:38:28.745Z,1.60
2022-08-26T10:42:24.132Z,3.00
2022-08-26T10:45:25.613Z,2.00
2022-08-26T10:48:35.952Z,1.60
2022-08-26T10:51:06.401Z,0.00
2022-08-26T10:53:59.289Z,2.00
2022-08-26T11:03:33.872Z,1.50
2022-08-26T11:09:49.741Z,3.00
2022-08-26T11:20:23.915Z,2.00
2022-08-26T11:29:33.108Z,1.00
2022-08-26T11:32:48.635Z,2.00
2022-08-26T11:35:24.424Z,2.00
2022-08-26T11:37:57.881Z,3.00
2022-08-26T11:40:32.399Z,2.00
2022-08-26T11:43:53.502Z,2.00
2022-08-26T11:46:42.689Z,2.00
2022-08-26T11:56:37.331Z,2.40
2022-08-26T11:59:10.551Z,1.00
2022-08-26T12:01:49.589Z,2.00
2022-08-26T12:10:38.572Z,1.00
2022-08-26T12:13:08.338Z,1.00
2022-08-26T12:15:36.329Z,1.00
2022-08-26T12:18:29.271Z,1.00
2022-08-26T12:21:00.821Z,1.60
2022-08-26T12:23:49.997Z,1.40
2022-08-26T12:26:24.186Z,2.00
2022-08-26T12:29:26.950Z,1.00
2022-08-26T12:32:25.740Z,1.00
2022-08-26T12:34:59.369Z,1.00
2022-08-26T12:37:28.229Z,1.00
2022-08-26T12:40:19.310Z,0.20
2022-08-26T12:42:49.919Z,0.40
2022-08-26T12:45:54.749Z,1.00
2022-08-26T12:51:29.025Z,1.80
2022-08-26T12:55:00.790Z,2.00
2022-08-26T13:00:40.580Z,1.00
2022-08-26T13:03:46.353Z,1.00
2022-08-26T13:06:35.172Z,1.60
2022-08-26T13:09:26.186Z,1.00
2022-08-26T13:19:01.461Z,1.00
2022-08-26T13:25:22.609Z,1.00
2022-08-26T13:27:51.911Z,2.00
2022-08-26T13:30:54.039Z,0.00
2022-08-26T13:33:35.884Z,1.40
2022-08-26T13:36:30.733Z,3.00
2022-08-26T13:43:02.853Z,1.00
2022-08-26T13:55:54.017Z,1.40
2022-08-26T13:58:37.189Z,1.20
2022-08-26T14:01:46.857Z,2.00
2022-08-26T14:12:14.087Z,2.00
2022-08-26T14:27:14.304Z,2.00
2022-08-26T14:36:27.338Z,2.80
2022-08-26T14:39:10.319Z,2.00
2022-08-26T14:42:10.525Z,3.00
2022-08-26T14:44:45.001Z,1.00
2022-08-26T14:47:12.922Z,2.00
2022-08-26T14:49:40.573Z,2.60
2022-08-26T14:52:08.417Z,2.00
2022-08-26T14:54:37.264Z,3.00
2022-08-26T14:57:08.663Z,3.00
2022-08-26T14:59:42.243Z,2.00
2022-08-26T15:02:27.761Z,3.20
2022-08-26T15:05:04.820Z,2.00
2022-08-26T15:07:32.357Z,2.20
2022-08-26T15:10:00.481Z,3.80
2022-08-26T15:12:28.246Z,3.00
2022-08-26T15:14:56.095Z,1.00
2022-08-26T15:17:23.759Z,2.40
2022-08-26T15:19:52.006Z,2.80
2022-08-26T15:22:19.618Z,3.00
2022-08-26T15:24:47.341Z,2.80
2022-08-26T15:27:19.837Z,2.00
2022-08-26T15:29:47.628Z,2.00
2022-08-26T15:32:15.854Z,3.20
2022-08-26T15:34:43.709Z,3.40
2022-08-26T15:37:11.539Z,5.00
2022-08-26T15:39:39.599Z,2.40
2022-08-26T15:42:07.289Z,2.80
2022-08-26T15:44:36.954Z,2.00
2022-08-26T15:47:04.862Z,2.60
2022-08-26T15:49:32.448Z,3.00
2022-08-26T15:52:00.307Z,2.00
2022-08-26T15:54:27.803Z,3.20
2022-08-26T15:56:55.473Z,2.80
2022-08-26T15:59:23.521Z,3.40
2022-08-26T16:01:51.988Z,2.80
2022-08-26T16:04:20.460Z,2.80
2022-08-26T16:06:50.580Z,4.00
2022-08-26T16:09:20.503Z,4.00
2022-08-26T16:11:48.161Z,4.00
2022-08-26T16:14:16.037Z,4.00
2022-08-26T16:16:43.639Z,3.00
2022-08-26T16:19:11.915Z,3.60
2022-08-26T16:21:41.459Z,2.60
2022-08-26T16:24:12.988Z,2.60
2022-08-26T16:52:18.793Z,4.40
2022-08-26T16:54:46.743Z,3.00
2022-08-26T16:57:14.625Z,2.20
2022-08-26T16:59:42.839Z,4.60
2022-08-26T17:02:12.267Z,5.00
2022-08-26T17:04:40.256Z,3.40
2022-08-26T17:07:07.976Z,4.00
2022-08-26T17:09:37.780Z,4.40
2022-08-26T17:12:09.462Z,3.20
2022-08-26T17:14:37.533Z,3.00
2022-08-26T17:17:06.362Z,4.00
2022-08-26T17:19:39.047Z,3.00
2022-08-26T17:22:09.873Z,4.00
2022-08-26T17:24:38.156Z,4.00
2022-08-26T17:27:06.036Z,4.00
2022-08-26T17:29:34.991Z,4.00
2022-08-26T17:32:02.886Z,4.00
2022-08-26T17:34:30.599Z,3.40
2022-08-26T17:36:58.184Z,3.20
2022-08-26T17:39:25.994Z,2.00
2022-08-26T17:41:53.801Z,1.80
2022-08-26T17:44:21.563Z,3.00
2022-08-26T17:46:49.122Z,5.00
2022-08-26T17:49:16.882Z,4.00
2022-08-26T17:51:45.198Z,5.00
2022-08-26T17:54:13.031Z,4.60
2022-08-26T17:56:40.901Z,4.80
2022-08-26T17:59:11.427Z,5.80
2022-08-26T18:01:40.651Z,3.60
2022-08-26T18:04:08.742Z,3.40
2022-08-26T18:06:39.542Z,4.40
2022-08-26T18:09:10.114Z,3.60
2022-08-26T18:11:37.902Z,3.80
2022-08-26T18:14:07.166Z,4.00
2022-08-26T18:16:39.091Z,6.60
2022-08-26T18:19:07.878Z,8.00
2022-08-26T18:21:36.558Z,6.40
2022-08-26T18:24:05.136Z,7.40
2022-08-26T18:26:38.364Z,6.20
2022-08-26T18:29:10.172Z,10.20
2022-08-26T18:31:37.853Z,8.00
2022-08-26T18:34:06.099Z,6.40
2022-08-26T18:36:35.977Z,4.80
2022-08-26T18:39:05.718Z,5.00
2022-08-26T18:41:39.155Z,7.40
2022-08-26T18:44:08.542Z,6.20
2022-08-26T18:46:38.612Z,8.00
2022-08-26T18:49:06.184Z,5.40
2022-08-26T18:51:34.551Z,7.00
2022-08-26T18:54:04.654Z,7.00
2022-08-26T18:56:33.859Z,7.60
2022-08-26T18:59:01.820Z,7.20
2022-08-26T19:01:30.699Z,6.80
2022-08-26T19:04:01.242Z,4.60
2022-08-26T19:06:31.832Z,6.20
2022-08-26T19:09:00.163Z,5.00
2022-08-26T19:11:31.624Z,3.60
2022-08-26T19:14:02.112Z,5.00
2022-08-26T19:16:30.299Z,6.20
2022-08-26T19:18:59.167Z,4.60
2022-08-26T19:21:27.530Z,5.00
2022-08-26T19:24:00.439Z,5.20
2022-08-26T19:26:29.603Z,4.00
2022-08-26T19:28:57.170Z,5.00
2022-08-26T19:31:24.789Z,5.00
2022-08-26T19:33:52.347Z,3.00
2022-08-26T19:36:23.775Z,3.80
2022-08-26T19:38:52.807Z,4.60
2022-08-26T19:41:27.797Z,4.00
2022-08-26T19:44:10.683Z,3.80
2022-08-26T19:49:07.097Z,6.00
2022-08-26T19:51:39.168Z,5.80
2022-08-26T19:54:06.681Z,5.80
2022-08-26T19:56:35.165Z,5.00
2022-08-26T19:59:02.570Z,3.80
2022-08-26T20:01:30.989Z,4.80
2022-08-26T20:03:59.358Z,4.40
2022-08-26T20:06:26.759Z,5.20
2022-08-26T20:08:56.328Z,5.20
2022-08-26T20:11:25.181Z,4.80
2022-08-26T20:13:53.855Z,4.80
2022-08-26T20:16:21.475Z,3.40
2022-08-26T20:19:08.083Z,3.00
2022-08-26T20:21:39.338Z,4.00
2022-08-26T20:24:14.257Z,3.80
2022-08-26T20:26:43.808Z,4.80
2022-08-26T20:29:14.148Z,2.80
2022-08-26T20:31:44.403Z,3.40
2022-08-26T20:34:14.848Z,5.20
2022-08-26T20:36:43.869Z,4.60
2022-08-26T20:39:12.039Z,4.00
2022-08-26T20:41:40.887Z,4.80
2022-08-26T20:44:09.759Z,3.20
2022-08-26T20:46:40.041Z,4.40
2022-08-26T20:49:07.849Z,3.80
2022-08-26T20:51:37.679Z,3.00
2022-08-26T20:54:07.411Z,4.80
2022-08-26T20:56:36.046Z,5.00
2022-08-26T20:59:07.235Z,2.60
2022-08-26T21:01:36.922Z,4.00
2022-08-26T21:04:18.862Z,2.00
2022-08-26T21:06:52.921Z,1.80
2022-08-26T21:09:23.206Z,4.00
2022-08-26T21:11:51.823Z,3.80
2022-08-26T21:14:25.745Z,3.80
2022-08-26T21:16:53.952Z,4.40
2022-08-26T21:19:22.550Z,3.40
2022-08-26T21:21:51.516Z,1.60
2022-08-26T21:24:23.092Z,3.40
2022-08-26T21:26:53.912Z,5.60
2022-08-26T21:29:22.498Z,4.80
2022-08-26T21:31:50.499Z,4.00
2022-08-26T21:34:19.838Z,2.60
2022-08-26T21:36:48.460Z,4.00
2022-08-26T21:39:17.117Z,3.80
2022-08-26T21:41:45.557Z,5.40
2022-08-26T21:44:15.113Z,3.80
2022-08-26T21:46:43.839Z,4.00
2022-08-26T21:49:14.134Z,4.40
2022-08-26T21:51:45.363Z,4.00
2022-08-26T21:54:14.041Z,3.20
2022-08-26T21:56:46.922Z,3.60
2022-08-26T21:59:17.545Z,3.00
2022-08-26T22:01:46.106Z,3.40
2022-08-26T22:04:14.388Z,2.80
2022-08-26T22:06:45.247Z,4.00
2022-08-26T22:09:14.984Z,2.80
2022-08-26T22:11:42.917Z,3.20
2022-08-26T22:14:11.352Z,4.00
2022-08-26T22:16:39.064Z,3.80
2022-08-26T22:19:06.761Z,3.20
2022-08-26T22:21:36.053Z,2.80
2022-08-26T22:24:04.929Z,4.00
2022-08-26T22:26:34.121Z,3.60
2022-08-26T22:29:05.001Z,4.00
2022-08-26T22:31:37.884Z,3.60
2022-08-26T22:34:11.842Z,3.80
2022-08-26T22:36:44.164Z,4.00
2022-08-26T22:39:15.848Z,3.80
2022-08-26T22:41:44.121Z,4.40
2022-08-26T22:44:12.896Z,4.20
2022-08-26T22:46:41.522Z,4.20
2022-08-26T22:49:11.161Z,4.00
2022-08-26T22:51:39.137Z,2.20
2022-08-26T22:54:07.209Z,3.80
2022-08-26T22:56:35.522Z,4.20
2022-08-26T22:59:04.406Z,3.50
2022-08-26T23:01:35.955Z,5.50
2022-08-26T23:04:05.104Z,1.00
2022-08-26T23:06:36.946Z,4.00
2022-08-26T23:09:06.654Z,2.60
2022-08-26T23:11:35.489Z,4.50
2022-08-26T23:14:06.439Z,3.80
2022-08-26T23:16:41.792Z,2.80
2022-08-26T23:19:12.196Z,3.00
2022-08-26T23:21:40.121Z,3.75
2022-08-26T23:24:09.334Z,3.50
2022-08-26T23:26:37.923Z,3.00
2022-08-26T23:29:07.931Z,3.00
2022-08-26T23:31:38.042Z,4.25
2022-08-26T23:34:25.146Z,3.50
2022-08-26T23:36:53.852Z,5.50
2022-08-26T23:39:21.703Z,2.50
2022-08-26T23:41:49.644Z,3.00
2022-08-26T23:44:17.330Z,3.50
2022-08-26T23:46:45.097Z,3.75
2022-08-26T23:49:13.200Z,4.50
2022-08-26T23:51:59.422Z,4.50
2022-08-26T23:54:27.263Z,4.50
2022-08-26T23:56:54.945Z,4.00
2022-08-26T23:59:22.890Z,3.25
